Time;durP1;ratioP1;P1;durP2;ratioP2;P2;SDS_P1;SDS_P2;PMS_P1;PMS_P2;Temp;Humidity;BMP_temperature;BMP_pressure;BME280_temperature;BME280_humidity;BME280_pressure;Samples;Min_cycle;Max_cycle;Signal;HPM_P1;HPM_P2
2022/03/13 00:00:10;;;;;;;14.60;12.77;;;;;;;;;;4975807;28;20344;-58
2022/03/13 00:02:36;;;;;;;17.00;13.67;;;;;;;;;;4980850;28;20204;-58
2022/03/13 00:05:02;;;;;;;15.77;12.63;;;;;;;;;;4981963;28;20217;-58
2022/03/13 00:07:30;;;;;;;17.23;13.53;;;;;;;;;;4983827;28;20579;-58
2022/03/13 00:09:56;;;;;;;16.30;12.80;;;;;;;;;;4982323;28;20198;-57
2022/03/13 00:12:30;;;;;;;15.57;13.40;;;;;;;;;;4980671;28;20492;-58
2022/03/13 00:14:56;;;;;;;15.60;13.23;;;;;;;;;;4981775;28;20819;-58
2022/03/13 00:17:27;;;;;;;14.87;12.27;;;;;;;;;;4975478;28;20292;-57
2022/03/13 00:19:53;;;;;;;16.30;13.20;;;;;;;;;;4978205;28;20197;-57
2022/03/13 00:22:19;;;;;;;17.77;13.27;;;;;;;;;;4977017;28;20662;-58
2022/03/13 00:24:45;;;;;;;16.27;13.20;;;;;;;;;;4985513;28;20224;-58
2022/03/13 00:27:11;;;;;;;17.67;13.40;;;;;;;;;;4980115;28;20335;-58
2022/03/13 00:29:39;;;;;;;14.40;11.73;;;;;;;;;;4981416;28;20697;-57
2022/03/13 00:32:06;;;;;;;15.20;12.73;;;;;;;;;;4974005;28;20771;-58
2022/03/13 00:34:32;;;;;;;14.37;12.10;;;;;;;;;;4965500;28;20216;-58
2022/03/13 00:36:58;;;;;;;15.17;13.00;;;;;;;;;;4973969;28;20204;-58
2022/03/13 00:39:24;;;;;;;17.50;13.87;;;;;;;;;;4976898;28;21854;-58
2022/03/13 00:41:49;;;;;;;18.13;12.43;;;;;;;;;;4968372;28;20272;-58
2022/03/13 00:44:15;;;;;;;13.97;12.27;;;;;;;;;;4977408;28;20704;-57
2022/03/13 00:46:41;;;;;;;16.37;12.77;;;;;;;;;;4974693;28;20749;-58
2022/03/13 00:49:08;;;;;;;18.13;12.93;;;;;;;;;;4979133;28;20650;-57
2022/03/13 00:51:33;;;;;;;15.80;12.60;;;;;;;;;;4970772;28;21133;-58
2022/03/13 00:53:59;;;;;;;15.20;12.47;;;;;;;;;;4978289;28;20212;-58
2022/03/13 00:56:25;;;;;;;14.37;12.47;;;;;;;;;;4970738;28;20200;-58
2022/03/13 00:58:52;;;;;;;13.53;12.03;;;;;;;;;;4967462;28;21023;-58
2022/03/13 01:01:18;;;;;;;15.47;11.77;;;;;;;;;;4975739;28;20190;-57
2022/03/13 01:03:44;;;;;;;14.90;12.10;;;;;;;;;;4973381;28;20228;-58
2022/03/13 01:06:10;;;;;;;15.47;13.20;;;;;;;;;;4977241;28;22084;-58
2022/03/13 01:08:36;;;;;;;16.97;12.43;;;;;;;;;;4975044;28;20192;-58
2022/03/13 01:11:02;;;;;;;13.53;12.03;;;;;;;;;;4966708;28;20221;-58
2022/03/13 01:13:29;;;;;;;16.13;12.67;;;;;;;;;;4981627;28;20593;-57
2022/03/13 01:15:56;;;;;;;16.17;12.53;;;;;;;;;;4976121;28;20796;-57
2022/03/13 01:18:22;;;;;;;14.93;12.97;;;;;;;;;;4965802;28;20203;-57
2022/03/13 01:20:48;;;;;;;14.20;12.07;;;;;;;;;;4973133;28;20229;-58
2022/03/13 01:23:15;;;;;;;13.93;12.40;;;;;;;;;;4971669;28;20540;-58
2022/03/13 01:25:41;;;;;;;14.70;12.63;;;;;;;;;;4976916;28;20240;-58
2022/03/13 01:28:07;;;;;;;14.43;11.77;;;;;;;;;;4980780;28;20346;-58
2022/03/13 01:30:33;;;;;;;14.33;12.60;;;;;;;;;;4974293;28;20734;-57
2022/03/13 01:32:59;;;;;;;13.30;11.77;;;;;;;;;;4973018;28;20186;-58
2022/03/13 01:35:25;;;;;;;15.27;12.30;;;;;;;;;;4973806;28;20228;-57
2022/03/13 01:37:51;;;;;;;15.17;12.07;;;;;;;;;;4977124;28;20849;-58
2022/03/13 01:40:19;;;;;;;14.63;12.37;;;;;;;;;;4973961;28;20369;-58
2022/03/13 01:42:47;;;;;;;17.30;12.37;;;;;;;;;;4970677;28;20275;-58
2022/03/13 01:45:14;;;;;;;13.87;11.33;;;;;;;;;;4977075;28;21784;-57
2022/03/13 01:47:40;;;;;;;14.80;11.97;;;;;;;;;;4968221;28;20200;-57
2022/03/13 01:50:09;;;;;;;16.33;11.77;;;;;;;;;;4971373;28;20194;-58
2022/03/13 01:52:35;;;;;;;14.90;11.10;;;;;;;;;;4973613;28;20201;-58
2022/03/13 01:55:02;;;;;;;15.63;11.47;;;;;;;;;;4978659;28;20266;-58
2022/03/13 01:57:28;;;;;;;13.50;11.70;;;;;;;;;;4977993;28;20201;-58
2022/03/13 01:59:55;;;;;;;14.60;11.40;;;;;;;;;;4965521;28;20577;-57
2022/03/13 02:02:21;;;;;;;13.20;11.20;;;;;;;;;;4959465;28;21453;-58
2022/03/13 02:04:51;;;;;;;14.13;10.87;;;;;;;;;;4958530;28;20331;-58
2022/03/13 02:07:17;;;;;;;13.77;11.30;;;;;;;;;;4968271;28;20287;-57
2022/03/13 02:09:43;;;;;;;13.03;11.63;;;;;;;;;;4965256;28;21677;-58
2022/03/13 02:12:09;;;;;;;13.37;11.27;;;;;;;;;;4970996;28;20196;-57
2022/03/13 02:14:35;;;;;;;13.83;11.13;;;;;;;;;;4969335;28;20228;-58
2022/03/13 02:17:01;;;;;;;14.17;11.40;;;;;;;;;;4972861;28;20651;-58
2022/03/13 02:19:27;;;;;;;14.53;11.83;;;;;;;;;;4975269;28;20815;-58
2022/03/13 02:21:55;;;;;;;12.80;11.07;;;;;;;;;;4970809;28;20197;-57
2022/03/13 02:24:24;;;;;;;12.77;10.83;;;;;;;;;;4963596;28;20576;-57
2022/03/13 02:27:01;;;;;;;14.17;11.30;;;;;;;;;;4971645;28;22017;-57
2022/03/13 02:29:28;;;;;;;14.77;11.53;;;;;;;;;;4977385;28;20539;-58
2022/03/13 02:31:54;;;;;;;15.33;10.87;;;;;;;;;;4969550;28;20187;-57
2022/03/13 02:34:20;;;;;;;13.10;11.70;;;;;;;;;;4971217;28;20276;-58
2022/03/13 02:36:49;;;;;;;13.20;11.80;;;;;;;;;;4970418;28;20199;-58
2022/03/13 02:39:15;;;;;;;13.47;10.57;;;;;;;;;;4974324;28;20859;-58
2022/03/13 02:41:41;;;;;;;15.13;11.87;;;;;;;;;;4974827;28;20717;-57
2022/03/13 02:44:07;;;;;;;13.33;11.30;;;;;;;;;;4974401;28;20200;-57
2022/03/13 02:47:03;;;;;;;12.93;11.00;;;;;;;;;;4978270;28;20203;-57
2022/03/13 02:49:30;;;;;;;13.20;11.00;;;;;;;;;;4966188;28;20222;-58
2022/03/13 02:51:56;;;;;;;12.87;11.47;;;;;;;;;;4965539;28;20644;-57
2022/03/13 02:54:22;;;;;;;13.63;11.17;;;;;;;;;;4968346;28;20650;-57
2022/03/13 02:56:49;;;;;;;15.23;10.47;;;;;;;;;;4970826;28;20195;-57
2022/03/13 02:59:15;;;;;;;15.67;11.27;;;;;;;;;;4969382;28;20560;-58
2022/03/13 03:01:41;;;;;;;13.37;10.93;;;;;;;;;;4959100;28;21084;-58
2022/03/13 03:04:07;;;;;;;14.33;10.90;;;;;;;;;;4970027;28;20514;-57
2022/03/13 03:06:34;;;;;;;13.10;10.80;;;;;;;;;;4968121;28;20277;-58
2022/03/13 03:09:01;;;;;;;14.60;11.37;;;;;;;;;;4965893;28;20212;-57
2022/03/13 03:11:27;;;;;;;12.23;10.93;;;;;;;;;;4965383;28;20209;-57
2022/03/13 03:13:53;;;;;;;14.63;11.07;;;;;;;;;;4966478;28;20757;-57
2022/03/13 03:16:19;;;;;;;13.80;11.50;;;;;;;;;;4967061;28;20275;-58
2022/03/13 03:18:46;;;;;;;13.57;11.13;;;;;;;;;;4965172;28;20838;-57
2022/03/13 03:21:13;;;;;;;12.07;10.87;;;;;;;;;;4959867;28;20818;-57
2022/03/13 03:23:39;;;;;;;13.00;11.00;;;;;;;;;;4959555;28;20204;-58
2022/03/13 03:26:05;;;;;;;12.17;10.43;;;;;;;;;;4967643;28;20233;-57
2022/03/13 03:28:32;;;;;;;14.80;11.17;;;;;;;;;;4970940;28;20201;-57
2022/03/13 03:31:00;;;;;;;13.00;11.13;;;;;;;;;;4967778;28;20193;-58
2022/03/13 03:33:26;;;;;;;12.87;10.50;;;;;;;;;;4978796;28;20573;-58
2022/03/13 03:35:51;;;;;;;11.90;10.63;;;;;;;;;;4977888;28;21580;-57
2022/03/13 03:38:17;;;;;;;14.07;11.27;;;;;;;;;;4968727;28;21103;-57
2022/03/13 03:40:44;;;;;;;11.87;9.97;;;;;;;;;;4965715;28;20197;-57
2022/03/13 03:43:10;;;;;;;11.27;10.10;;;;;;;;;;4968077;28;20197;-58
2022/03/13 03:45:35;;;;;;;12.53;10.83;;;;;;;;;;4965730;28;21292;-58
2022/03/13 03:48:01;;;;;;;12.07;10.23;;;;;;;;;;4967879;28;20201;-57
2022/03/13 03:50:27;;;;;;;13.70;10.33;;;;;;;;;;4969082;28;20385;-58
2022/03/13 03:52:57;;;;;;;12.33;10.03;;;;;;;;;;4972663;28;20240;-57
2022/03/13 03:55:23;;;;;;;13.83;11.07;;;;;;;;;;4969852;28;20200;-57
2022/03/13 03:57:50;;;;;;;12.93;10.53;;;;;;;;;;4970261;28;20203;-57
2022/03/13 04:00:16;;;;;;;12.80;10.47;;;;;;;;;;4981358;28;20192;-58
2022/03/13 04:02:42;;;;;;;14.30;11.00;;;;;;;;;;4980491;28;21585;-57
2022/03/13 04:05:08;;;;;;;13.77;10.23;;;;;;;;;;4983109;28;20209;-58
2022/03/13 04:07:36;;;;;;;11.70;9.47;;;;;;;;;;4980192;28;20243;-58
2022/03/13 04:10:02;;;;;;;12.67;10.07;;;;;;;;;;4979833;28;20752;-57
2022/03/13 04:12:30;;;;;;;12.60;10.50;;;;;;;;;;4970150;28;20204;-57
2022/03/13 04:14:56;;;;;;;13.23;10.00;;;;;;;;;;4976891;28;20850;-58
2022/03/13 04:17:21;;;;;;;12.33;9.60;;;;;;;;;;4987336;28;20752;-58
2022/03/13 04:19:47;;;;;;;12.63;9.57;;;;;;;;;;4978692;28;20200;-58
2022/03/13 04:22:15;;;;;;;14.37;10.07;;;;;;;;;;4974328;28;20205;-57
2022/03/13 04:24:41;;;;;;;12.10;10.27;;;;;;;;;;4986295;28;20245;-58
2022/03/13 04:27:07;;;;;;;11.93;9.77;;;;;;;;;;4983917;28;20830;-59
2022/03/13 04:29:34;;;;;;;13.57;10.50;;;;;;;;;;4985072;28;20197;-58
2022/03/13 04:32:00;;;;;;;10.83;9.73;;;;;;;;;;4980363;28;20215;-57
2022/03/13 04:34:26;;;;;;;12.20;9.23;;;;;;;;;;4976804;28;20560;-58
2022/03/13 04:36:52;;;;;;;11.43;9.00;;;;;;;;;;4970680;28;20199;-57
2022/03/13 04:39:18;;;;;;;14.07;9.53;;;;;;;;;;4969517;28;20200;-58
2022/03/13 04:41:44;;;;;;;11.33;9.97;;;;;;;;;;4966758;28;20329;-57
2022/03/13 04:44:14;;;;;;;11.93;10.00;;;;;;;;;;4973417;28;20674;-58
2022/03/13 04:46:39;;;;;;;10.73;9.50;;;;;;;;;;4978734;28;20195;-58
2022/03/13 04:49:06;;;;;;;15.63;9.90;;;;;;;;;;4983962;28;20236;-57
2022/03/13 04:51:32;;;;;;;10.97;8.73;;;;;;;;;;4980967;28;20699;-58
2022/03/13 04:53:58;;;;;;;11.70;9.70;;;;;;;;;;4983677;28;20953;-58
2022/03/13 04:56:24;;;;;;;11.63;9.23;;;;;;;;;;4966215;28;20598;-57
2022/03/13 04:58:50;;;;;;;11.80;9.40;;;;;;;;;;4976937;28;20188;-57
2022/03/13 05:01:19;;;;;;;13.70;9.47;;;;;;;;;;4974897;28;20219;-57
2022/03/13 05:03:45;;;;;;;10.83;9.60;;;;;;;;;;4972596;28;20644;-58
2022/03/13 05:06:11;;;;;;;11.20;9.73;;;;;;;;;;4976158;28;20217;-57
2022/03/13 05:08:37;;;;;;;13.53;9.83;;;;;;;;;;4979088;28;20201;-57
2022/03/13 05:11:07;;;;;;;11.13;9.83;;;;;;;;;;4986478;28;20261;-58
2022/03/13 05:13:33;;;;;;;12.97;9.63;;;;;;;;;;4979351;28;20222;-57
2022/03/13 05:15:59;;;;;;;10.23;9.13;;;;;;;;;;4974965;28;20488;-57
2022/03/13 05:18:25;;;;;;;11.90;9.53;;;;;;;;;;4976509;28;20196;-57
2022/03/13 05:20:51;;;;;;;11.50;10.30;;;;;;;;;;4974440;28;20219;-58
2022/03/13 05:23:17;;;;;;;13.57;9.70;;;;;;;;;;4993684;28;20604;-58
2022/03/13 05:25:43;;;;;;;13.17;10.23;;;;;;;;;;4993223;28;21048;-58
2022/03/13 05:28:09;;;;;;;11.87;9.53;;;;;;;;;;4987466;28;20201;-57
2022/03/13 05:30:36;;;;;;;11.93;9.40;;;;;;;;;;4983272;28;21649;-57
2022/03/13 05:33:01;;;;;;;13.70;10.03;;;;;;;;;;4984976;28;20250;-57
2022/03/13 05:35:28;;;;;;;11.13;9.03;;;;;;;;;;4985997;28;20210;-58
2022/03/13 05:37:53;;;;;;;12.73;10.30;;;;;;;;;;4984853;28;20197;-57
2022/03/13 05:40:20;;;;;;;11.03;9.03;;;;;;;;;;4974788;28;21210;-57
2022/03/13 05:42:47;;;;;;;11.40;9.53;;;;;;;;;;4981607;28;20196;-58
2022/03/13 05:45:13;;;;;;;10.50;9.33;;;;;;;;;;4994003;28;20204;-58
2022/03/13 05:47:58;;;;;;;10.90;9.50;;;;;;;;;;4991778;28;20228;-57
2022/03/13 05:50:25;;;;;;;11.07;8.87;;;;;;;;;;5004076;28;20189;-57
2022/03/13 05:52:52;;;;;;;11.97;9.20;;;;;;;;;;4997983;28;20198;-58
2022/03/13 05:55:19;;;;;;;14.67;9.13;;;;;;;;;;4997975;28;20636;-57
2022/03/13 05:57:45;;;;;;;10.87;9.27;;;;;;;;;;5009399;28;20739;-58
2022/03/13 06:00:11;;;;;;;11.33;8.90;;;;;;;;;;5002802;28;20700;-58
2022/03/13 06:02:40;;;;;;;9.83;8.37;;;;;;;;;;5005059;28;20210;-58
2022/03/13 06:05:07;;;;;;;11.83;9.43;;;;;;;;;;5003344;28;21232;-58
2022/03/13 06:07:34;;;;;;;10.80;9.43;;;;;;;;;;5006750;28;20666;-58
2022/03/13 06:10:03;;;;;;;11.20;8.77;;;;;;;;;;5008937;28;20433;-57
2022/03/13 06:12:30;;;;;;;11.03;9.33;;;;;;;;;;5006619;28;20194;-58
2022/03/13 06:14:55;;;;;;;14.10;9.40;;;;;;;;;;5005237;28;20233;-58
2022/03/13 06:17:21;;;;;;;11.00;9.33;;;;;;;;;;5003186;28;20192;-58
2022/03/13 06:19:48;;;;;;;11.43;10.07;;;;;;;;;;5000433;28;20189;-58
2022/03/13 06:22:14;;;;;;;16.70;9.90;;;;;;;;;;5004308;28;20552;-57
2022/03/13 06:24:40;;;;;;;12.57;9.20;;;;;;;;;;4990152;28;20726;-58
2022/03/13 06:27:06;;;;;;;10.70;9.60;;;;;;;;;;5000318;28;20926;-58
2022/03/13 06:29:32;;;;;;;11.50;9.57;;;;;;;;;;4991523;28;20550;-58
2022/03/13 06:31:59;;;;;;;12.03;9.83;;;;;;;;;;4990265;28;20853;-58
2022/03/13 06:34:25;;;;;;;12.17;9.00;;;;;;;;;;4994414;28;20359;-57
2022/03/13 06:36:51;;;;;;;13.97;9.63;;;;;;;;;;4999075;28;20200;-57
2022/03/13 06:39:18;;;;;;;10.80;9.30;;;;;;;;;;5000041;28;20194;-58
2022/03/13 06:41:44;;;;;;;10.83;9.20;;;;;;;;;;4997507;28;20177;-58
2022/03/13 06:44:10;;;;;;;11.03;9.07;;;;;;;;;;4988741;28;20208;-58
2022/03/13 06:46:36;;;;;;;11.10;9.27;;;;;;;;;;4992411;28;20203;-58
2022/03/13 06:49:05;;;;;;;11.70;8.87;;;;;;;;;;4990005;28;20193;-58
2022/03/13 06:51:30;;;;;;;12.00;9.43;;;;;;;;;;4993464;28;20207;-57
2022/03/13 06:53:57;;;;;;;10.93;8.97;;;;;;;;;;4991813;28;20710;-57
2022/03/13 06:56:22;;;;;;;11.73;9.30;;;;;;;;;;4994573;28;20204;-58
2022/03/13 06:58:48;;;;;;;11.77;9.33;;;;;;;;;;4989551;28;20425;-58
2022/03/13 07:01:14;;;;;;;10.40;8.67;;;;;;;;;;4990988;28;20193;-57
2022/03/13 07:03:42;;;;;;;12.73;9.83;;;;;;;;;;4991681;28;20257;-57
2022/03/13 07:06:08;;;;;;;12.23;9.03;;;;;;;;;;4994917;28;20266;-57
2022/03/13 07:08:33;;;;;;;12.10;9.23;;;;;;;;;;4994490;28;20237;-58
2022/03/13 07:11:01;;;;;;;11.73;9.50;;;;;;;;;;4996605;28;20197;-57
2022/03/13 07:13:31;;;;;;;10.73;9.27;;;;;;;;;;4995440;28;20193;-57
2022/03/13 07:15:57;;;;;;;11.77;9.43;;;;;;;;;;4983330;28;20197;-57
2022/03/13 07:18:23;;;;;;;11.10;9.13;;;;;;;;;;4990963;28;20189;-58
2022/03/13 07:20:49;;;;;;;9.87;8.77;;;;;;;;;;4989573;28;20194;-57
2022/03/13 07:23:15;;;;;;;11.97;8.77;;;;;;;;;;4992642;28;20243;-57
2022/03/13 07:25:41;;;;;;;12.13;8.97;;;;;;;;;;4991482;28;20643;-58
2022/03/13 07:28:07;;;;;;;11.37;8.60;;;;;;;;;;4999562;28;21655;-58
2022/03/13 07:30:33;;;;;;;11.13;9.60;;;;;;;;;;4996891;28;20215;-58
2022/03/13 07:32:59;;;;;;;11.40;9.13;;;;;;;;;;4990101;28;20223;-58
2022/03/13 07:35:26;;;;;;;12.27;9.63;;;;;;;;;;4981897;28;20320;-58
2022/03/13 07:37:52;;;;;;;11.30;8.77;;;;;;;;;;4990900;28;20276;-57
2022/03/13 07:40:18;;;;;;;9.57;8.57;;;;;;;;;;4992977;28;20193;-58
2022/03/13 07:42:44;;;;;;;11.23;8.47;;;;;;;;;;4990018;28;20941;-58
2022/03/13 07:45:10;;;;;;;9.40;8.50;;;;;;;;;;4987233;28;20197;-58
2022/03/13 07:47:36;;;;;;;9.87;8.87;;;;;;;;;;4994369;28;20283;-57
2022/03/13 07:50:02;;;;;;;12.03;9.03;;;;;;;;;;4995704;28;20239;-58
2022/03/13 07:52:28;;;;;;;10.20;8.37;;;;;;;;;;4987254;28;20198;-58
2022/03/13 07:54:54;;;;;;;12.27;8.70;;;;;;;;;;4980671;28;20209;-57
2022/03/13 07:57:20;;;;;;;10.83;8.10;;;;;;;;;;4994944;28;20240;-58
2022/03/13 07:59:47;;;;;;;10.80;8.70;;;;;;;;;;4994590;28;20503;-58
2022/03/13 08:02:14;;;;;;;11.30;9.57;;;;;;;;;;4993519;28;20340;-58
2022/03/13 08:04:40;;;;;;;10.97;8.20;;;;;;;;;;4993257;28;20244;-57
2022/03/13 08:07:06;;;;;;;9.73;8.50;;;;;;;;;;4998625;28;20279;-57
2022/03/13 08:09:34;;;;;;;12.90;8.93;;;;;;;;;;4994693;28;20194;-58
2022/03/13 08:12:00;;;;;;;10.97;9.00;;;;;;;;;;5001447;28;20201;-58
2022/03/13 08:14:26;;;;;;;10.47;8.53;;;;;;;;;;4995745;28;26759;-57
2022/03/13 08:16:52;;;;;;;10.57;8.77;;;;;;;;;;4998931;28;20189;-57
2022/03/13 08:19:18;;;;;;;9.73;8.53;;;;;;;;;;4997682;28;21209;-58
2022/03/13 08:21:44;;;;;;;11.83;9.17;;;;;;;;;;5002784;28;20201;-58
2022/03/13 08:24:10;;;;;;;10.37;8.90;;;;;;;;;;4997573;28;20185;-58
2022/03/13 08:26:38;;;;;;;12.20;9.40;;;;;;;;;;4991602;28;20242;-58
2022/03/13 08:29:05;;;;;;;10.87;8.90;;;;;;;;;;4988942;28;20227;-58
2022/03/13 08:31:32;;;;;;;10.47;8.70;;;;;;;;;;4993450;28;20193;-58
2022/03/13 08:33:58;;;;;;;11.57;8.90;;;;;;;;;;5000351;28;20892;-58
2022/03/13 08:36:24;;;;;;;12.57;8.77;;;;;;;;;;4999462;28;21091;-57
2022/03/13 08:38:50;;;;;;;10.93;8.80;;;;;;;;;;5002808;28;20328;-58
2022/03/13 08:41:16;;;;;;;10.10;9.00;;;;;;;;;;5002219;28;20699;-58
2022/03/13 08:43:42;;;;;;;10.93;8.53;;;;;;;;;;5000513;28;20627;-58
2022/03/13 08:46:09;;;;;;;11.60;8.70;;;;;;;;;;4993032;28;20793;-58
2022/03/13 08:48:35;;;;;;;9.83;8.80;;;;;;;;;;4992611;28;21723;-58
2022/03/13 08:51:01;;;;;;;10.10;8.67;;;;;;;;;;4996475;28;20273;-58
2022/03/13 08:53:27;;;;;;;10.33;8.60;;;;;;;;;;4998500;28;20831;-58
2022/03/13 08:55:53;;;;;;;10.77;8.97;;;;;;;;;;5000131;28;20659;-58
2022/03/13 08:58:19;;;;;;;10.87;9.10;;;;;;;;;;4990604;28;20216;-57
2022/03/13 09:00:45;;;;;;;10.50;8.93;;;;;;;;;;4996589;28;20295;-58
2022/03/13 09:03:11;;;;;;;11.17;9.10;;;;;;;;;;4984466;28;20252;-58
2022/03/13 09:05:38;;;;;;;9.83;8.83;;;;;;;;;;4982933;28;20213;-58
2022/03/13 09:08:05;;;;;;;11.93;9.30;;;;;;;;;;4991299;28;20256;-57
2022/03/13 09:10:31;;;;;;;13.33;9.27;;;;;;;;;;4987059;28;20185;-58
2022/03/13 09:12:57;;;;;;;11.80;9.37;;;;;;;;;;5005299;28;20582;-58
2022/03/13 09:15:23;;;;;;;11.80;8.97;;;;;;;;;;4997778;28;20221;-58
2022/03/13 09:17:53;;;;;;;10.23;9.13;;;;;;;;;;4997913;28;20689;-58
2022/03/13 09:20:19;;;;;;;12.30;8.70;;;;;;;;;;5002166;28;20186;-58
2022/03/13 09:22:45;;;;;;;10.30;9.10;;;;;;;;;;5002728;28;20188;-58
2022/03/13 09:25:11;;;;;;;10.20;9.03;;;;;;;;;;5003826;28;20236;-58
2022/03/13 09:27:37;;;;;;;10.37;9.27;;;;;;;;;;5002878;28;20208;-57
2022/03/13 09:30:04;;;;;;;11.53;8.57;;;;;;;;;;5001206;28;20212;-58
2022/03/13 09:32:30;;;;;;;11.77;9.63;;;;;;;;;;4995514;28;20565;-58
2022/03/13 09:34:56;;;;;;;10.97;9.33;;;;;;;;;;4995203;28;20264;-58
2022/03/13 09:37:23;;;;;;;11.30;9.27;;;;;;;;;;4999496;28;20531;-58
2022/03/13 09:39:49;;;;;;;14.70;8.63;;;;;;;;;;4987701;28;20216;-58
2022/03/13 09:42:15;;;;;;;11.00;8.87;;;;;;;;;;4991262;28;20270;-58
2022/03/13 09:44:41;;;;;;;13.87;8.97;;;;;;;;;;4996892;28;20197;-58
2022/03/13 09:47:08;;;;;;;10.83;8.43;;;;;;;;;;4998404;28;20679;-58
2022/03/13 09:49:34;;;;;;;11.13;9.10;;;;;;;;;;4999446;28;20196;-59
2022/03/13 09:52:00;;;;;;;9.57;8.47;;;;;;;;;;5001958;28;20227;-58
2022/03/13 09:54:26;;;;;;;9.77;8.77;;;;;;;;;;4998864;28;20629;-58
2022/03/13 09:56:52;;;;;;;10.13;8.83;;;;;;;;;;5002672;28;20193;-58
2022/03/13 09:59:18;;;;;;;10.30;8.87;;;;;;;;;;5002620;28;20322;-58
2022/03/13 10:01:44;;;;;;;13.20;8.20;;;;;;;;;;5001663;28;20283;-58
2022/03/13 10:04:12;;;;;;;11.73;8.97;;;;;;;;;;4993543;28;20198;-59
2022/03/13 10:07:05;;;;;;;9.83;8.77;;;;;;;;;;4993757;28;20224;-58
2022/03/13 10:09:31;;;;;;;10.80;8.77;;;;;;;;;;4996016;28;20208;-59
2022/03/13 10:12:16;;;;;;;9.93;8.70;;;;;;;;;;4995044;28;20201;-59
2022/03/13 10:15:01;;;;;;;10.90;9.17;;;;;;;;;;4999345;28;20247;-58
2022/03/13 10:17:27;;;;;;;9.40;8.50;;;;;;;;;;4981956;28;20189;-59
2022/03/13 10:19:54;;;;;;;9.02;8.02;;;;;;;;;;4993846;28;20205;-59
2022/03/13 10:22:20;;;;;;;11.20;9.02;;;;;;;;;;4997273;28;20196;-59
2022/03/13 10:24:46;;;;;;;11.52;8.85;;;;;;;;;;4998801;28;20843;-59
2022/03/13 10:27:16;;;;;;;9.70;8.70;;;;;;;;;;4998629;28;20204;-59
2022/03/13 10:29:42;;;;;;;9.68;8.73;;;;;;;;;;4997293;28;20307;-58
2022/03/13 10:32:09;;;;;;;8.80;8.00;;;;;;;;;;5006953;28;20224;-58
2022/03/13 10:34:35;;;;;;;9.77;8.88;;;;;;;;;;5007064;28;20470;-60
2022/03/13 10:37:04;;;;;;;10.43;9.43;;;;;;;;;;5002857;28;21000;-59
2022/03/13 10:39:30;;;;;;;9.68;8.43;;;;;;;;;;4996310;28;20193;-59
2022/03/13 10:42:00;;;;;;;9.02;8.13;;;;;;;;;;4994086;28;20274;-60
2022/03/13 10:44:27;;;;;;;10.65;9.52;;;;;;;;;;4994440;28;20563;-59
2022/03/13 10:46:57;;;;;;;9.90;8.90;;;;;;;;;;4996001;28;20200;-60
2022/03/13 10:49:36;;;;;;;9.65;8.75;;;;;;;;;;4984987;28;20188;-60
2022/03/13 10:52:03;;;;;;;10.95;8.80;;;;;;;;;;4995026;28;20194;-59
2022/03/13 10:54:30;;;;;;;10.05;8.65;;;;;;;;;;5001444;28;20213;-59
2022/03/13 10:57:05;;;;;;;10.80;9.40;;;;;;;;;;4998661;28;20193;-59
2022/03/13 10:59:31;;;;;;;9.52;8.52;;;;;;;;;;4990810;28;20211;-59
2022/03/13 11:02:17;;;;;;;9.45;8.55;;;;;;;;;;4996573;28;20216;-59
2022/03/13 11:04:54;;;;;;;10.07;9.07;;;;;;;;;;4994988;28;21404;-59
2022/03/13 11:07:20;;;;;;;11.25;10.00;;;;;;;;;;4998353;28;20211;-59
2022/03/13 11:09:46;;;;;;;12.15;10.43;;;;;;;;;;4989515;28;20254;-59
2022/03/13 11:12:19;;;;;;;10.20;9.20;;;;;;;;;;4988560;28;20193;-58
2022/03/13 11:14:47;;;;;;;4.70;4.25;;;;;;;;;;4994430;28;20228;-58
2022/03/13 11:17:14;;;;;;;7.88;5.43;;;;;;;;;;4997952;28;20236;-58
2022/03/13 11:19:40;;;;;;;6.60;5.32;;;;;;;;;;4995118;28;20647;-59
2022/03/13 11:22:07;;;;;;;6.00;5.00;;;;;;;;;;4997927;28;20211;-59
2022/03/13 11:24:36;;;;;;;9.85;6.75;;;;;;;;;;4997405;28;20622;-59
2022/03/13 11:27:02;;;;;;;5.43;4.93;;;;;;;;;;5002364;28;20188;-58
2022/03/13 11:29:48;;;;;;;5.20;4.68;;;;;;;;;;4998947;28;20193;-59
2022/03/13 11:32:30;;;;;;;7.60;5.47;;;;;;;;;;4993526;28;20184;-59
2022/03/13 11:35:14;;;;;;;5.70;5.10;;;;;;;;;;5003651;28;20227;-57
2022/03/13 11:37:41;;;;;;;6.75;5.43;;;;;;;;;;4997181;28;20191;-56
2022/03/13 11:40:07;;;;;;;5.22;4.72;;;;;;;;;;4998075;28;20585;-57
2022/03/13 11:42:49;;;;;;;6.53;5.82;;;;;;;;;;4995777;28;20198;-57
2022/03/13 11:45:29;;;;;;;7.35;5.13;;;;;;;;;;4993742;28;24758;-57
2022/03/13 11:47:55;;;;;;;7.97;5.30;;;;;;;;;;4991880;28;20562;-57
2022/03/13 11:50:21;;;;;;;6.35;5.70;;;;;;;;;;5000679;28;20201;-59
2022/03/13 11:52:48;;;;;;;7.60;6.25;;;;;;;;;;5002185;28;20200;-61
2022/03/13 11:55:15;;;;;;;6.32;5.72;;;;;;;;;;4994844;28;20244;-60
2022/03/13 11:57:42;;;;;;;7.50;6.00;;;;;;;;;;4985592;28;20195;-58
2022/03/13 12:00:11;;;;;;;7.75;5.55;;;;;;;;;;4988637;28;20210;-58
2022/03/13 12:02:43;;;;;;;6.55;5.90;;;;;;;;;;4991026;28;20197;-59
2022/03/13 12:05:28;;;;;;;6.28;5.53;;;;;;;;;;4991337;28;20217;-59
2022/03/13 12:08:04;;;;;;;10.13;5.75;;;;;;;;;;4993078;28;20605;-59
2022/03/13 12:10:32;;;;;;;7.93;5.90;;;;;;;;;;4989522;28;20919;-59
2022/03/13 12:13:04;;;;;;;6.10;5.50;;;;;;;;;;4984637;28;20220;-58
2022/03/13 12:15:30;;;;;;;7.07;5.93;;;;;;;;;;4983225;28;20256;-58
2022/03/13 12:18:01;;;;;;;14.60;11.35;;;;;;;;;;4989789;28;20227;-57
2022/03/13 12:20:28;;;;;;;11.13;7.55;;;;;;;;;;4990820;28;20293;-58
2022/03/13 12:22:54;;;;;;;9.00;6.18;;;;;;;;;;4995397;28;20197;-58
2022/03/13 12:25:38;;;;;;;7.20;6.47;;;;;;;;;;4993893;28;20256;-58
2022/03/13 12:28:05;;;;;;;8.13;6.18;;;;;;;;;;4999296;28;20185;-57
2022/03/13 12:30:34;;;;;;;10.30;9.20;;;;;;;;;;4997146;28;20254;-57
2022/03/13 12:33:00;;;;;;;9.35;8.25;;;;;;;;;;4987096;28;20185;-57
2022/03/13 12:35:26;;;;;;;14.15;7.93;;;;;;;;;;4998113;28;20259;-57
2022/03/13 12:37:56;;;;;;;9.50;8.50;;;;;;;;;;4990164;28;20790;-57
2022/03/13 12:40:23;;;;;;;11.57;8.13;;;;;;;;;;4993503;28;20238;-57
2022/03/13 12:42:56;;;;;;;9.50;8.52;;;;;;;;;;5000004;28;20181;-57
2022/03/13 12:45:22;;;;;;;9.95;9.02;;;;;;;;;;4994195;28;20605;-64
2022/03/13 12:47:55;;;;;;;10.52;9.43;;;;;;;;;;4999040;28;20190;-57
2022/03/13 12:50:21;;;;;;;19.75;8.23;;;;;;;;;;4992882;28;20259;-57
2022/03/13 12:52:57;;;;;;;16.73;9.68;;;;;;;;;;4998700;28;20189;-57
2022/03/13 12:55:23;;;;;;;9.20;8.30;;;;;;;;;;4988938;28;20585;-57
2022/03/13 12:57:53;;;;;;;9.27;7.85;;;;;;;;;;4999383;28;20294;-57
2022/03/13 13:00:19;;;;;;;9.85;8.85;;;;;;;;;;4997562;28;20598;-57
2022/03/13 13:02:57;;;;;;;8.88;8.02;;;;;;;;;;5000404;28;20225;-57
2022/03/13 13:05:23;;;;;;;12.40;7.53;;;;;;;;;;4993499;28;20244;-57
2022/03/13 13:07:49;;;;;;;11.57;7.72;;;;;;;;;;4999921;28;20929;-56
2022/03/13 13:10:15;;;;;;;10.65;7.25;;;;;;;;;;4993795;28;20194;-57
2022/03/13 13:12:41;;;;;;;12.05;10.93;;;;;;;;;;4996138;28;20189;-56
2022/03/13 13:15:08;;;;;;;10.18;9.02;;;;;;;;;;4994489;28;20220;-57
2022/03/13 13:17:34;;;;;;;8.73;7.88;;;;;;;;;;4992074;28;20600;-57
2022/03/13 13:20:04;;;;;;;7.88;7.03;;;;;;;;;;4993101;28;20242;-57
2022/03/13 13:22:31;;;;;;;10.25;9.13;;;;;;;;;;4997947;28;20291;-57
2022/03/13 13:24:58;;;;;;;10.15;8.18;;;;;;;;;;4993123;28;20225;-57
2022/03/13 13:27:32;;;;;;;9.48;8.50;;;;;;;;;;5000205;28;20231;-57
2022/03/13 13:29:58;;;;;;;7.38;6.55;;;;;;;;;;4993531;28;20308;-57
2022/03/13 13:32:28;;;;;;;10.15;5.30;;;;;;;;;;5000106;28;20198;-58
2022/03/13 13:35:08;;;;;;;8.10;6.43;;;;;;;;;;4998128;28;20668;-57
2022/03/13 13:37:34;;;;;;;7.35;5.80;;;;;;;;;;4999004;28;20621;-58
2022/03/13 13:40:04;;;;;;;6.93;5.65;;;;;;;;;;4992541;28;20197;-58
2022/03/13 13:42:32;;;;;;;10.88;5.78;;;;;;;;;;4994668;28;21517;-57
2022/03/13 13:44:59;;;;;;;8.90;6.22;;;;;;;;;;4990697;28;21016;-57
2022/03/13 13:47:25;;;;;;;15.57;9.20;;;;;;;;;;4991894;28;20197;-59
2022/03/13 13:49:51;;;;;;;8.52;6.25;;;;;;;;;;4997259;28;20259;-58
2022/03/13 13:52:17;;;;;;;9.13;7.70;;;;;;;;;;4991872;28;20184;-58
2022/03/13 13:54:43;;;;;;;6.47;5.88;;;;;;;;;;4990231;28;20216;-57
2022/03/13 13:57:19;;;;;;;8.00;6.53;;;;;;;;;;4999108;28;20239;-58
2022/03/13 13:59:45;;;;;;;6.60;5.47;;;;;;;;;;4992863;28;20173;-58
2022/03/13 14:02:13;;;;;;;7.88;5.25;;;;;;;;;;4993428;28;20551;-57
2022/03/13 14:04:40;;;;;;;11.27;5.78;;;;;;;;;;4989328;28;20427;-63
2022/03/13 14:07:06;;;;;;;5.88;5.05;;;;;;;;;;4998073;28;20192;-56
2022/03/13 14:09:32;;;;;;;6.60;6.00;;;;;;;;;;4997129;28;20370;-57
2022/03/13 14:12:00;;;;;;;6.97;5.03;;;;;;;;;;4996932;28;20197;-56
2022/03/13 14:14:26;;;;;;;6.90;6.20;;;;;;;;;;4997691;28;20217;-57
2022/03/13 14:16:52;;;;;;;9.10;5.93;;;;;;;;;;4996763;28;20204;-56
2022/03/13 14:19:18;;;;;;;11.00;5.63;;;;;;;;;;4994232;28;20231;-57
2022/03/13 14:21:44;;;;;;;6.35;4.75;;;;;;;;;;4996113;28;20190;-57
2022/03/13 14:24:11;;;;;;;9.30;4.82;;;;;;;;;;4987962;28;20728;-57
2022/03/13 14:26:37;;;;;;;8.00;4.93;;;;;;;;;;4994175;28;20477;-57
2022/03/13 14:29:03;;;;;;;10.80;5.32;;;;;;;;;;5000276;28;20712;-57